Time;durP1;ratioP1;P1;durP2;ratioP2;P2;SDS_P1;SDS_P2;PMS_P1;PMS_P2;Temp;Humidity;BMP_temperature;BMP_pressure;BME280_temperature;BME280_humidity;BME280_pressure;Samples;Min_cycle;Max_cycle;Signal;HPM_P1;HPM_P2
2023/12/18 00:00:35;;;;;;;;;;;6.40;99.90;;;;;;5117274;27;19937;-71
2023/12/18 00:03:01;;;;;;;;;;;6.40;99.90;;;;;;5120391;27;19974;-71
2023/12/18 00:05:26;;;;;;;;;;;6.40;99.90;;;;;;5120255;27;20659;-71
2023/12/18 00:07:52;;;;;;;;;;;6.40;99.90;;;;;;5118629;27;19912;-71
2023/12/18 00:10:18;;;;;;;;;;;6.40;99.90;;;;;;5123406;27;19922;-71
2023/12/18 00:12:44;;;;;;;;;;;6.40;99.90;;;;;;5119241;27;19916;-71
2023/12/18 00:15:09;;;;;;;;;;;6.40;99.90;;;;;;5110760;27;20566;-71
2023/12/18 00:17:35;;;;;;;;;;;6.40;99.90;;;;;;5124437;27;19914;-71
2023/12/18 00:20:00;;;;;;;;;;;6.40;99.90;;;;;;5128854;27;20004;-71
2023/12/18 00:22:26;;;;;;;;;;;6.40;99.90;;;;;;5119789;27;19916;-71
2023/12/18 00:24:51;;;;;;;;;;;6.40;99.90;;;;;;5110956;27;19918;-72
2023/12/18 00:27:17;;;;;;;;;;;6.40;99.90;;;;;;5115264;27;19984;-72
2023/12/18 00:29:42;;;;;;;;;;;6.40;99.90;;;;;;5123453;27;20038;-71
2023/12/18 00:32:08;;;;;;;;;;;6.40;99.90;;;;;;5118870;27;20395;-71
2023/12/18 00:34:33;;;;;;;;;;;6.40;99.90;;;;;;5111990;27;20010;-72
2023/12/18 00:36:59;;;;;;;;;;;6.40;99.90;;;;;;5109972;27;19966;-71
2023/12/18 00:39:24;;;;;;;;;;;6.40;99.90;;;;;;5117116;27;19917;-71
2023/12/18 00:41:51;;;;;;;;;;;6.40;99.90;;;;;;5106938;27;20353;-72
2023/12/18 00:44:17;;;;;;;;;;;6.40;99.90;;;;;;5111602;27;19947;-71
2023/12/18 00:46:42;;;;;;;;;;;6.40;99.90;;;;;;5118296;27;20309;-72
2023/12/18 00:49:08;;;;;;;;;;;6.40;99.90;;;;;;5120537;27;19932;-71
2023/12/18 00:51:33;;;;;;;;;;;6.40;99.90;;;;;;5117536;27;19960;-71
2023/12/18 00:53:59;;;;;;;;;;;6.30;99.90;;;;;;5131508;27;19945;-71
2023/12/18 00:56:24;;;;;;;;;;;6.30;99.90;;;;;;5113505;27;19919;-71
2023/12/18 00:58:50;;;;;;;;;;;6.30;99.90;;;;;;5107909;28;19950;-71
2023/12/18 01:01:15;;;;;;;;;;;6.30;99.90;;;;;;5116206;27;20023;-71
2023/12/18 01:03:41;;;;;;;;;;;6.30;99.90;;;;;;5114872;27;19920;-71
2023/12/18 01:06:06;;;;;;;;;;;6.30;99.90;;;;;;5113503;27;19907;-71
2023/12/18 01:08:32;;;;;;;;;;;6.30;99.90;;;;;;5115085;27;20358;-71
2023/12/18 01:10:57;;;;;;;;;;;6.30;99.90;;;;;;5115824;27;19937;-71
2023/12/18 01:13:23;;;;;;;;;;;6.30;99.90;;;;;;5107819;28;19976;-72
2023/12/18 01:15:48;;;;;;;;;;;6.30;99.90;;;;;;5115825;27;19969;-72
2023/12/18 01:18:14;;;;;;;;;;;6.30;99.90;;;;;;5110839;27;19911;-72
2023/12/18 01:20:39;;;;;;;;;;;6.20;99.90;;;;;;5112830;27;20375;-72
2023/12/18 01:23:05;;;;;;;;;;;6.20;99.90;;;;;;5117891;27;19911;-71
2023/12/18 01:25:31;;;;;;;;;;;6.30;99.90;;;;;;5122070;27;19912;-71
2023/12/18 01:27:56;;;;;;;;;;;6.20;99.90;;;;;;5107513;28;19994;-71
2023/12/18 01:30:22;;;;;;;;;;;6.20;99.90;;;;;;5115162;27;19920;-72
2023/12/18 01:32:47;;;;;;;;;;;6.20;99.90;;;;;;5124055;27;19950;-71
2023/12/18 01:35:13;;;;;;;;;;;6.20;99.90;;;;;;5115962;27;19923;-71
2023/12/18 01:37:38;;;;;;;;;;;6.20;99.90;;;;;;5122850;27;19979;-71
2023/12/18 01:40:04;;;;;;;;;;;6.20;99.90;;;;;;5115646;27;19919;-71
2023/12/18 01:42:31;;;;;;;;;;;6.20;99.90;;;;;;5098772;28;20353;-71
2023/12/18 01:44:56;;;;;;;;;;;6.20;99.90;;;;;;5106568;28;19924;-71
2023/12/18 01:47:22;;;;;;;;;;;6.20;99.90;;;;;;5106926;27;19912;-71
2023/12/18 01:49:49;;;;;;;;;;;6.20;99.90;;;;;;5107140;28;19964;-71
2023/12/18 01:52:15;;;;;;;;;;;6.20;99.90;;;;;;5107037;27;19947;-71
2023/12/18 01:54:40;;;;;;;;;;;6.20;99.90;;;;;;5107376;28;19939;-71
2023/12/18 01:57:06;;;;;;;;;;;6.20;99.90;;;;;;5106701;28;19964;-71
2023/12/18 01:59:32;;;;;;;;;;;6.20;99.90;;;;;;5113018;27;19907;-71
2023/12/18 02:01:58;;;;;;;;;;;6.20;99.90;;;;;;5117593;27;19912;-71
2023/12/18 02:04:23;;;;;;;;;;;6.20;99.90;;;;;;5108011;27;19950;-71
2023/12/18 02:06:49;;;;;;;;;;;6.20;99.90;;;;;;5118332;27;19912;-71
2023/12/18 02:09:15;;;;;;;;;;;6.20;99.90;;;;;;5118067;27;19971;-71
2023/12/18 02:11:43;;;;;;;;;;;6.20;99.90;;;;;;5104543;27;19914;-71
2023/12/18 02:14:08;;;;;;;;;;;6.20;99.90;;;;;;5112444;27;19918;-71
2023/12/18 02:16:34;;;;;;;;;;;6.20;99.90;;;;;;5121085;27;19911;-72
2023/12/18 02:19:00;;;;;;;;;;;6.20;99.90;;;;;;5117240;27;19994;-71
2023/12/18 02:21:25;;;;;;;;;;;6.20;99.90;;;;;;5111427;27;20427;-71
2023/12/18 02:23:51;;;;;;;;;;;6.20;99.90;;;;;;5109869;27;20214;-71
2023/12/18 02:26:17;;;;;;;;;;;6.10;99.90;;;;;;5114490;27;20003;-71
2023/12/18 02:28:45;;;;;;;;;;;6.10;99.90;;;;;;5106443;28;19965;-71
2023/12/18 02:31:14;;;;;;;;;;;6.10;99.90;;;;;;5113782;27;19919;-71
2023/12/18 02:33:40;;;;;;;;;;;6.20;99.90;;;;;;5112515;27;19912;-71
2023/12/18 02:36:06;;;;;;;;;;;6.20;99.90;;;;;;5104913;27;19912;-72
2023/12/18 02:38:32;;;;;;;;;;;6.10;99.90;;;;;;5112610;27;20288;-71
2023/12/18 02:40:57;;;;;;;;;;;6.10;99.90;;;;;;5105745;28;19931;-71
2023/12/18 02:43:23;;;;;;;;;;;6.10;99.90;;;;;;5106237;28;20288;-71
2023/12/18 02:45:48;;;;;;;;;;;6.10;99.90;;;;;;5105596;28;20057;-71
2023/12/18 02:48:14;;;;;;;;;;;6.10;99.90;;;;;;5105551;28;20364;-71
2023/12/18 02:50:39;;;;;;;;;;;6.10;99.90;;;;;;5105753;28;19915;-71
2023/12/18 02:53:05;;;;;;;;;;;6.10;99.90;;;;;;5105341;27;19908;-71
2023/12/18 02:55:30;;;;;;;;;;;6.10;99.90;;;;;;5105553;27;19933;-71
2023/12/18 02:57:56;;;;;;;;;;;6.10;99.90;;;;;;5106005;28;19912;-71
2023/12/18 03:00:21;;;;;;;;;;;6.10;99.90;;;;;;5105356;28;20245;-72
2023/12/18 03:02:47;;;;;;;;;;;6.10;99.90;;;;;;5112916;27;19922;-71
2023/12/18 03:05:14;;;;;;;;;;;6.10;99.90;;;;;;5105744;27;19934;-71
2023/12/18 03:07:39;;;;;;;;;;;6.10;99.90;;;;;;5105651;28;19912;-71
2023/12/18 03:10:05;;;;;;;;;;;6.10;99.90;;;;;;5113452;27;19907;-71
2023/12/18 03:12:31;;;;;;;;;;;6.10;99.90;;;;;;5110752;27;19963;-72
2023/12/18 03:14:56;;;;;;;;;;;6.00;99.90;;;;;;5107483;27;20599;-71
2023/12/18 03:17:22;;;;;;;;;;;6.00;99.90;;;;;;5109330;27;19934;-71
2023/12/18 03:19:47;;;;;;;;;;;6.00;99.90;;;;;;5117499;27;20569;-72
2023/12/18 03:22:13;;;;;;;;;;;6.00;99.90;;;;;;5112316;27;20379;-71
2023/12/18 03:24:39;;;;;;;;;;;6.00;99.90;;;;;;5105818;28;19915;-71
2023/12/18 03:27:05;;;;;;;;;;;6.00;99.90;;;;;;5114952;27;19911;-72
2023/12/18 03:29:30;;;;;;;;;;;6.00;99.90;;;;;;5110934;27;19919;-71
2023/12/18 03:31:56;;;;;;;;;;;6.00;99.90;;;;;;5105101;28;19920;-71
2023/12/18 03:34:21;;;;;;;;;;;6.00;99.90;;;;;;5105295;28;20276;-71
2023/12/18 03:36:47;;;;;;;;;;;6.00;99.90;;;;;;5105222;28;19911;-71
2023/12/18 03:39:12;;;;;;;;;;;6.00;99.90;;;;;;5113685;27;19962;-71
2023/12/18 03:41:38;;;;;;;;;;;5.90;99.90;;;;;;5111749;27;19916;-71
2023/12/18 03:44:03;;;;;;;;;;;5.90;99.90;;;;;;5108750;27;20405;-71
2023/12/18 03:46:29;;;;;;;;;;;5.90;99.90;;;;;;5112211;27;19938;-71
2023/12/18 03:48:54;;;;;;;;;;;5.90;99.90;;;;;;5113739;28;20438;-71
2023/12/18 03:51:20;;;;;;;;;;;5.90;99.90;;;;;;5113333;27;19915;-71
2023/12/18 03:53:45;;;;;;;;;;;5.90;99.90;;;;;;5112793;27;19911;-71
2023/12/18 03:56:11;;;;;;;;;;;5.90;99.90;;;;;;5105533;27;20262;-71
2023/12/18 03:58:36;;;;;;;;;;;5.90;99.90;;;;;;5111621;27;19954;-71
2023/12/18 04:01:02;;;;;;;;;;;5.90;99.90;;;;;;5106973;27;19916;-71
2023/12/18 04:03:28;;;;;;;;;;;5.90;99.90;;;;;;5102753;28;19933;-71
2023/12/18 04:05:53;;;;;;;;;;;5.90;99.90;;;;;;5101213;28;20573;-71
2023/12/18 04:08:19;;;;;;;;;;;5.90;99.90;;;;;;5113097;27;19912;-71
2023/12/18 04:10:44;;;;;;;;;;;5.90;99.90;;;;;;5110400;27;19911;-71
2023/12/18 04:13:10;;;;;;;;;;;5.90;99.90;;;;;;5122337;27;20006;-71
2023/12/18 04:15:35;;;;;;;;;;;5.90;99.90;;;;;;5119050;27;19918;-71
2023/12/18 04:18:01;;;;;;;;;;;5.90;99.90;;;;;;5115766;27;19950;-71
2023/12/18 04:20:26;;;;;;;;;;;5.80;99.90;;;;;;5105272;28;19914;-71
2023/12/18 04:22:52;;;;;;;;;;;5.80;99.90;;;;;;5113681;28;20691;-71
2023/12/18 04:25:17;;;;;;;;;;;5.80;99.90;;;;;;5116606;27;19957;-71
2023/12/18 04:27:43;;;;;;;;;;;5.80;99.90;;;;;;5117813;27;19981;-71
2023/12/18 04:30:09;;;;;;;;;;;5.80;99.90;;;;;;5119693;27;20376;-71
2023/12/18 04:32:34;;;;;;;;;;;5.80;99.90;;;;;;5121211;27;20660;-71
2023/12/18 04:35:00;;;;;;;;;;;5.80;99.90;;;;;;5109126;27;20431;-72
2023/12/18 04:37:25;;;;;;;;;;;5.80;99.90;;;;;;5105306;27;19994;-71
2023/12/18 04:39:51;;;;;;;;;;;5.80;99.90;;;;;;5108769;27;20335;-71
2023/12/18 04:42:16;;;;;;;;;;;5.80;99.90;;;;;;5115512;27;20368;-71
2023/12/18 04:44:42;;;;;;;;;;;5.80;99.90;;;;;;5106716;28;19947;-71
2023/12/18 04:47:07;;;;;;;;;;;5.80;99.90;;;;;;5107476;28;19911;-71
2023/12/18 04:49:33;;;;;;;;;;;5.80;99.90;;;;;;5113313;27;20033;-71
2023/12/18 04:51:58;;;;;;;;;;;5.80;99.90;;;;;;5110508;27;20045;-71
2023/12/18 04:54:24;;;;;;;;;;;5.80;99.90;;;;;;5112081;27;20368;-72
2023/12/18 04:56:49;;;;;;;;;;;5.80;99.90;;;;;;5111599;27;19923;-71
2023/12/18 04:59:15;;;;;;;;;;;5.80;99.90;;;;;;5124079;27;19912;-72
2023/12/18 05:01:40;;;;;;;;;;;5.80;99.90;;;;;;5107224;28;20434;-71
2023/12/18 05:04:06;;;;;;;;;;;5.80;99.90;;;;;;5115260;27;20052;-72
2023/12/18 05:06:31;;;;;;;;;;;5.80;99.90;;;;;;5107272;28;19912;-72
2023/12/18 05:08:57;;;;;;;;;;;5.80;99.90;;;;;;5106607;27;19918;-72
2023/12/18 05:11:24;;;;;;;;;;;5.80;99.90;;;;;;5105587;27;19943;-71
2023/12/18 05:13:50;;;;;;;;;;;5.80;99.90;;;;;;5107799;27;19916;-71
2023/12/18 05:16:16;;;;;;;;;;;5.80;99.90;;;;;;5106937;28;19943;-71
2023/12/18 05:18:42;;;;;;;;;;;5.80;99.90;;;;;;5100609;28;19912;-71
2023/12/18 05:21:07;;;;;;;;;;;5.80;99.90;;;;;;5105173;28;19916;-71
2023/12/18 05:23:33;;;;;;;;;;;5.80;99.90;;;;;;5101728;28;20686;-71
2023/12/18 05:25:59;;;;;;;;;;;5.80;99.90;;;;;;5096259;27;20389;-71
2023/12/18 05:28:25;;;;;;;;;;;5.80;99.90;;;;;;5118458;27;19916;-71
2023/12/18 05:30:50;;;;;;;;;;;5.80;99.90;;;;;;5091825;27;20640;-71
2023/12/18 05:33:18;;;;;;;;;;;5.80;99.90;;;;;;5097426;28;20204;-71
2023/12/18 05:35:43;;;;;;;;;;;5.80;99.90;;;;;;5106154;27;19985;-71
2023/12/18 05:38:09;;;;;;;;;;;5.80;99.90;;;;;;5104390;28;19915;-71
2023/12/18 05:40:35;;;;;;;;;;;5.80;99.90;;;;;;5106003;28;19912;-71
2023/12/18 05:43:00;;;;;;;;;;;5.80;99.90;;;;;;5104663;28;19998;-71
2023/12/18 05:45:26;;;;;;;;;;;5.80;99.90;;;;;;5106363;28;20010;-72
2023/12/18 05:47:51;;;;;;;;;;;5.80;99.90;;;;;;5113882;27;20524;-72
2023/12/18 05:50:17;;;;;;;;;;;5.80;99.90;;;;;;5106457;27;19923;-71
2023/12/18 05:52:42;;;;;;;;;;;5.80;99.90;;;;;;5096714;28;19912;-71
2023/12/18 05:55:09;;;;;;;;;;;5.80;99.90;;;;;;5116442;27;19951;-71
2023/12/18 05:57:38;;;;;;;;;;;5.80;99.90;;;;;;5118496;27;19908;-71
2023/12/18 06:00:04;;;;;;;;;;;5.80;99.90;;;;;;5114608;27;19916;-71
2023/12/18 06:02:30;;;;;;;;;;;5.80;99.90;;;;;;5109881;27;19922;-71
2023/12/18 06:04:55;;;;;;;;;;;5.80;99.90;;;;;;5102695;27;19916;-71
2023/12/18 06:07:21;;;;;;;;;;;5.80;99.90;;;;;;5105819;28;19911;-71
2023/12/18 06:09:46;;;;;;;;;;;5.80;99.90;;;;;;5106358;27;20364;-71
2023/12/18 06:12:12;;;;;;;;;;;5.80;99.90;;;;;;5110891;27;19965;-71
2023/12/18 06:14:37;;;;;;;;;;;5.80;99.90;;;;;;5099995;28;19971;-71
2023/12/18 06:17:03;;;;;;;;;;;5.80;99.90;;;;;;5121731;27;19915;-71
2023/12/18 06:19:29;;;;;;;;;;;5.80;99.90;;;;;;5114841;27;19912;-71
2023/12/18 06:21:54;;;;;;;;;;;5.80;99.90;;;;;;5103599;28;20349;-71
2023/12/18 06:24:20;;;;;;;;;;;5.80;99.90;;;;;;5112821;27;19912;-71
2023/12/18 06:26:45;;;;;;;;;;;5.70;99.90;;;;;;5110735;27;19962;-71
2023/12/18 06:29:11;;;;;;;;;;;5.80;99.90;;;;;;5104964;27;20229;-71
2023/12/18 06:31:36;;;;;;;;;;;5.80;99.90;;;;;;5101732;28;19935;-71
2023/12/18 06:34:03;;;;;;;;;;;5.80;99.90;;;;;;5096538;28;19919;-71
2023/12/18 06:36:29;;;;;;;;;;;5.70;99.90;;;;;;5098372;28;19982;-71
2023/12/18 06:38:54;;;;;;;;;;;5.70;99.90;;;;;;5101982;28;19916;-71
2023/12/18 06:41:20;;;;;;;;;;;5.70;99.90;;;;;;5104074;28;19919;-71
2023/12/18 06:43:46;;;;;;;;;;;5.70;99.90;;;;;;5105066;28;19911;-72
2023/12/18 06:46:11;;;;;;;;;;;5.70;99.90;;;;;;5104096;28;19960;-71
2023/12/18 06:48:39;;;;;;;;;;;5.70;99.90;;;;;;5104818;28;19924;-71
2023/12/18 06:51:04;;;;;;;;;;;5.70;99.90;;;;;;5104051;28;20697;-72
2023/12/18 06:53:29;;;;;;;;;;;5.70;99.90;;;;;;5104982;28;20007;-72
2023/12/18 06:55:55;;;;;;;;;;;5.70;99.90;;;;;;5095292;28;19922;-71
2023/12/18 06:58:21;;;;;;;;;;;5.70;99.90;;;;;;5108659;27;20316;-71
2023/12/18 07:00:46;;;;;;;;;;;5.70;99.90;;;;;;5108858;27;19919;-71
2023/12/18 07:03:12;;;;;;;;;;;5.70;99.90;;;;;;5105813;27;19999;-71
2023/12/18 07:05:37;;;;;;;;;;;5.70;99.90;;;;;;5104696;28;19919;-71
2023/12/18 07:08:03;;;;;;;;;;;5.70;99.90;;;;;;5104499;28;19915;-71
2023/12/18 07:10:28;;;;;;;;;;;5.70;99.90;;;;;;5104885;28;19996;-71
2023/12/18 07:12:54;;;;;;;;;;;5.70;99.90;;;;;;5102228;28;19918;-71
2023/12/18 07:15:23;;;;;;;;;;;5.70;99.90;;;;;;5121350;27;19911;-71
2023/12/18 07:17:49;;;;;;;;;;;5.70;99.90;;;;;;5104493;28;20395;-71
2023/12/18 07:20:14;;;;;;;;;;;5.70;99.90;;;;;;5102768;28;19911;-71
2023/12/18 07:22:41;;;;;;;;;;;5.70;99.90;;;;;;5105190;27;20029;-71
2023/12/18 07:25:09;;;;;;;;;;;5.70;99.90;;;;;;5098494;28;20314;-71
2023/12/18 07:27:35;;;;;;;;;;;5.70;99.90;;;;;;5095704;28;19912;-71
2023/12/18 07:30:03;;;;;;;;;;;5.70;99.90;;;;;;5109636;27;19953;-71
2023/12/18 07:32:29;;;;;;;;;;;5.70;99.90;;;;;;5104517;28;20557;-71
2023/12/18 07:34:55;;;;;;;;;;;5.80;99.90;;;;;;5102877;28;19943;-71
2023/12/18 07:37:20;;;;;;;;;;;5.70;99.90;;;;;;5112859;27;20276;-71
2023/12/18 07:39:46;;;;;;;;;;;5.70;99.90;;;;;;5104307;28;19943;-71
2023/12/18 07:42:11;;;;;;;;;;;5.70;99.90;;;;;;5103270;28;20432;-71
2023/12/18 07:44:37;;;;;;;;;;;5.70;99.90;;;;;;5103692;28;20006;-71
2023/12/18 07:47:06;;;;;;;;;;;5.70;99.90;;;;;;5103009;28;19935;-71
2023/12/18 07:49:32;;;;;;;;;;;5.80;99.90;;;;;;5104463;28;19915;-71
2023/12/18 07:51:57;;;;;;;;;;;5.70;99.90;;;;;;5103204;28;20490;-71
2023/12/18 07:54:23;;;;;;;;;;;5.70;99.90;;;;;;5111547;27;19912;-71
2023/12/18 07:56:49;;;;;;;;;;;5.70;99.90;;;;;;5102660;28;20331;-71
2023/12/18 07:59:15;;;;;;;;;;;5.70;99.90;;;;;;5104327;27;19960;-71
2023/12/18 08:01:41;;;;;;;;;;;5.70;99.90;;;;;;5100682;28;19984;-71
2023/12/18 08:04:06;;;;;;;;;;;5.70;99.90;;;;;;5098987;28;20610;-71
2023/12/18 08:06:32;;;;;;;;;;;5.70;99.90;;;;;;5103966;28;19916;-71
2023/12/18 08:08:57;;;;;;;;;;;5.70;99.90;;;;;;5104853;27;19912;-71
2023/12/18 08:11:23;;;;;;;;;;;5.70;99.90;;;;;;5107314;28;21045;-71
2023/12/18 08:13:48;;;;;;;;;;;5.70;99.90;;;;;;5107259;28;19912;-71
2023/12/18 08:16:14;;;;;;;;;;;5.80;99.90;;;;;;5100403;28;19973;-71
2023/12/18 08:18:42;;;;;;;;;;;5.70;99.90;;;;;;5102974;27;19908;-71
2023/12/18 08:21:11;;;;;;;;;;;5.70;99.90;;;;;;5106083;28;19911;-71
2023/12/18 08:23:37;;;;;;;;;;;5.80;99.90;;;;;;5105086;28;20415;-71
2023/12/18 08:26:02;;;;;;;;;;;5.70;99.90;;;;;;5114053;27;19919;-71
2023/12/18 08:28:27;;;;;;;;;;;5.80;99.90;;;;;;5106529;27;19964;-71
2023/12/18 08:30:53;;;;;;;;;;;5.80;99.90;;;;;;5114351;27;19915;-71
2023/12/18 08:33:18;;;;;;;;;;;5.80;99.90;;;;;;5107197;27;19935;-71
2023/12/18 08:35:44;;;;;;;;;;;5.80;99.90;;;;;;5098805;28;19911;-71
2023/12/18 08:38:09;;;;;;;;;;;5.80;99.90;;;;;;5107270;28;19914;-71
2023/12/18 08:40:35;;;;;;;;;;;5.80;99.90;;;;;;5107297;27;20513;-71
2023/12/18 08:43:00;;;;;;;;;;;5.80;99.90;;;;;;5107341;28;19923;-71
2023/12/18 08:45:26;;;;;;;;;;;5.80;99.90;;;;;;5098897;28;19912;-71
2023/12/18 08:47:52;;;;;;;;;;;5.80;99.90;;;;;;5123929;27;20364;-71
2023/12/18 08:50:17;;;;;;;;;;;5.80;99.90;;;;;;5099186;27;20475;-71
2023/12/18 08:52:43;;;;;;;;;;;5.80;99.90;;;;;;5100899;28;19923;-71
2023/12/18 08:55:08;;;;;;;;;;;5.80;99.90;;;;;;5104904;27;19912;-71
2023/12/18 08:57:34;;;;;;;;;;;5.80;99.90;;;;;;5103343;28;19922;-71
2023/12/18 09:00:01;;;;;;;;;;;5.80;99.90;;;;;;5115355;27;19912;-71
2023/12/18 09:02:26;;;;;;;;;;;5.80;99.90;;;;;;5118655;27;20260;-71
2023/12/18 09:04:52;;;;;;;;;;;5.80;99.90;;;;;;5104517;27;19912;-71
2023/12/18 09:07:17;;;;;;;;;;;5.90;99.90;;;;;;5099501;27;19922;-71
2023/12/18 09:09:43;;;;;;;;;;;5.90;99.90;;;;;;5118923;27;19950;-71
2023/12/18 09:12:09;;;;;;;;;;;5.90;99.90;;;;;;5120224;27;19956;-71
2023/12/18 09:14:35;;;;;;;;;;;5.90;99.90;;;;;;5106063;28;19943;-71
2023/12/18 09:17:01;;;;;;;;;;;5.90;99.90;;;;;;5103593;27;19964;-71
2023/12/18 09:19:26;;;;;;;;;;;5.90;99.90;;;;;;5104918;28;19920;-71
2023/12/18 09:21:52;;;;;;;;;;;5.90;99.90;;;;;;5107853;27;19916;-71
2023/12/18 09:24:17;;;;;;;;;;;5.80;99.90;;;;;;5105212;27;20018;-71
2023/12/18 09:26:43;;;;;;;;;;;5.80;99.90;;;;;;5109699;27;20360;-71
2023/12/18 09:29:09;;;;;;;;;;;5.80;99.90;;;;;;5105938;27;19920;-71
2023/12/18 09:31:35;;;;;;;;;;;5.90;99.90;;;;;;5106207;27;19912;-71
2023/12/18 09:34:00;;;;;;;;;;;5.80;99.90;;;;;;5105572;27;19969;-71
2023/12/18 09:36:26;;;;;;;;;;;5.90;99.90;;;;;;5107054;28;19908;-71
2023/12/18 09:38:51;;;;;;;;;;;5.90;99.90;;;;;;5106852;28;19918;-71
2023/12/18 09:41:21;;;;;;;;;;;5.90;99.90;;;;;;5113238;27;19973;-71
2023/12/18 09:43:47;;;;;;;;;;;5.90;99.90;;;;;;5114293;27;20298;-71
2023/12/18 09:46:13;;;;;;;;;;;5.90;99.90;;;;;;5124515;27;19965;-71
2023/12/18 09:48:39;;;;;;;;;;;5.90;99.90;;;;;;5107029;28;19920;-71
2023/12/18 09:51:07;;;;;;;;;;;5.90;99.90;;;;;;5123680;27;19907;-71
2023/12/18 09:53:33;;;;;;;;;;;5.90;99.90;;;;;;5107083;27;19908;-71
2023/12/18 09:55:59;;;;;;;;;;;6.00;99.90;;;;;;5106346;28;19935;-71
2023/12/18 09:58:24;;;;;;;;;;;6.00;99.90;;;;;;5110669;27;20415;-71
2023/12/18 10:00:50;;;;;;;;;;;6.00;99.90;;;;;;5119612;27;19908;-71
2023/12/18 10:03:16;;;;;;;;;;;6.00;99.90;;;;;;5114282;27;19916;-71
2023/12/18 10:05:42;;;;;;;;;;;6.00;99.90;;;;;;5105996;28;20562;-71
2023/12/18 10:08:09;;;;;;;;;;;6.00;99.90;;;;;;5104340;28;19911;-71
2023/12/18 10:10:35;;;;;;;;;;;6.00;99.90;;;;;;5105989;28;19955;-71
2023/12/18 10:13:03;;;;;;;;;;;6.00;99.90;;;;;;5114437;27;19950;-71
2023/12/18 10:15:29;;;;;;;;;;;6.10;99.90;;;;;;5105927;28;19911;-71
2023/12/18 10:17:54;;;;;;;;;;;6.00;99.90;;;;;;5104775;28;19916;-71
2023/12/18 10:20:20;;;;;;;;;;;6.10;99.90;;;;;;5114298;27;20603;-71
2023/12/18 10:22:45;;;;;;;;;;;6.00;99.90;;;;;;5105601;28;19996;-71
2023/12/18 10:25:12;;;;;;;;;;;6.10;99.90;;;;;;5105614;28;20057;-71
2023/12/18 10:27:38;;;;;;;;;;;6.10;99.90;;;;;;5105212;28;19919;-71
2023/12/18 10:30:05;;;;;;;;;;;6.10;99.90;;;;;;5095208;27;19997;-71
2023/12/18 10:32:31;;;;;;;;;;;6.10;99.90;;;;;;5108259;27;19912;-71
2023/12/18 10:34:57;;;;;;;;;;;6.00;99.90;;;;;;5097023;28;19919;-71
2023/12/18 10:37:24;;;;;;;;;;;6.10;99.90;;;;;;5104679;28;19912;-71
2023/12/18 10:39:51;;;;;;;;;;;6.10;99.90;;;;;;5111363;27;19908;-71
2023/12/18 10:42:31;;;;;;;;;;;6.10;99.90;;;;;;5103074;27;19955;-71
2023/12/18 10:44:58;;;;;;;;;;;6.10;99.90;;;;;;5117136;27;19916;-71
2023/12/18 10:47:25;;;;;;;;;;;6.10;99.90;;;;;;5100896;27;19912;-71
2023/12/18 10:49:52;;;;;;;;;;;6.10;99.90;;;;;;5100058;27;19907;-71
2023/12/18 10:52:18;;;;;;;;;;;6.10;99.90;;;;;;5086068;28;19926;-71
2023/12/18 10:54:45;;;;;;;;;;;6.10;99.90;;;;;;5111660;27;19916;-71
2023/12/18 10:57:10;;;;;;;;;;;6.10;99.90;;;;;;5109618;27;19916;-71
2023/12/18 10:59:37;;;;;;;;;;;6.10;99.90;;;;;;5093167;27;19969;-71
2023/12/18 11:02:04;;;;;;;;;;;6.10;99.90;;;;;;5105041;27;19921;-71
2023/12/18 11:04:31;;;;;;;;;;;6.10;99.90;;;;;;5104699;28;19915;-71
2023/12/18 11:06:57;;;;;;;;;;;6.10;99.90;;;;;;5104226;28;20002;-71
2023/12/18 11:09:23;;;;;;;;;;;6.10;99.90;;;;;;5103971;27;19934;-71
2023/12/18 11:11:48;;;;;;;;;;;6.10;99.90;;;;;;5111654;27;20664;-71
2023/12/18 11:14:20;;;;;;;;;;;6.10;99.90;;;;;;5107411;27;19912;-71
2023/12/18 11:16:46;;;;;;;;;;;6.20;99.90;;;;;;5099654;27;19918;-71
2023/12/18 11:19:11;;;;;;;;;;;6.20;99.90;;;;;;5112666;27;19907;-71
2023/12/18 11:21:37;;;;;;;;;;;6.20;99.90;;;;;;5105041;27;19923;-71
2023/12/18 11:24:02;;;;;;;;;;;6.20;99.90;;;;;;5087467;27;19957;-71
2023/12/18 11:26:29;;;;;;;;;;;6.20;99.90;;;;;;5124532;27;20540;-71
2023/12/18 11:29:13;;;;;;;;;;;6.20;99.90;;;;;;5100101;27;19920;-71
2023/12/18 11:31:39;;;;;;;;;;;6.20;99.90;;;;;;5103223;27;19911;-71
2023/12/18 11:34:05;;;;;;;;;;;6.20;99.90;;;;;;5101912;27;19964;-71
2023/12/18 11:36:30;;;;;;;;;;;6.20;99.90;;;;;;5107220;27;20061;-71
2023/12/18 11:38:57;;;;;;;;;;;6.30;99.90;;;;;;5092021;28;19927;-71
2023/12/18 11:41:41;;;;;;;;;;;6.30;99.90;;;;;;5106027;28;19919;-71
2023/12/18 11:44:07;;;;;;;;;;;6.30;99.90;;;;;;5113409;27;20590;-71
2023/12/18 11:46:33;;;;;;;;;;;6.30;99.90;;;;;;5109896;28;20011;-71
2023/12/18 11:49:02;;;;;;;;;;;6.30;99.90;;;;;;5107144;27;19998;-71
2023/12/18 11:51:27;;;;;;;;;;;6.30;99.90;;;;;;5095954;28;19918;-71
2023/12/18 11:54:00;;;;;;;;;;;6.30;99.90;;;;;;5111758;27;20026;-71
2023/12/18 11:56:39;;;;;;;;;;;6.30;99.90;;;;;;5103827;27;19911;-71
2023/12/18 11:59:06;;;;;;;;;;;6.30;99.90;;;;;;5100670;28;19958;-71
2023/12/18 12:01:31;;;;;;;;;;;6.30;99.90;;;;;;5091726;28;19924;-71
2023/12/18 12:04:00;;;;;;;;;;;6.30;99.90;;;;;;5099460;28;19912;-71
2023/12/18 12:06:26;;;;;;;;;;;6.30;99.90;;;;;;5106502;28;19911;-71
2023/12/18 12:08:51;;;;;;;;;;;6.30;99.90;;;;;;5115364;27;20387;-71
2023/12/18 12:11:17;;;;;;;;;;;6.30;99.90;;;;;;5112258;27;19908;-71
2023/12/18 12:13:45;;;;;;;;;;;6.30;99.90;;;;;;5094861;28;19969;-71
2023/12/18 12:16:15;;;;;;;;;;;6.30;99.90;;;;;;5102687;28;19912;-71
2023/12/18 12:18:45;;;;;;;;;;;6.30;99.90;;;;;;5103902;28;19911;-71
2023/12/18 12:21:14;;;;;;;;;;;6.30;99.90;;;;;;5104700;28;19912;-71
2023/12/18 12:23:39;;;;;;;;;;;6.30;99.90;;;;;;5096234;27;19912;-71
2023/12/18 12:26:06;;;;;;;;;;;6.30;99.90;;;;;;5099663;28;20495;-71
2023/12/18 12:28:31;;;;;;;;;;;6.30;99.90;;;;;;5087506;28;20034;-71
2023/12/18 12:30:58;;;;;;;;;;;6.30;99.90;;;;;;5093883;28;19991;-71
2023/12/18 12:33:23;;;;;;;;;;;6.30;99.90;;;;;;5110588;27;19915;-71
2023/12/18 12:35:49;;;;;;;;;;;6.30;99.90;;;;;;5091200;28;19919;-71
2023/12/18 12:38:16;;;;;;;;;;;6.30;99.90;;;;;;5109991;28;19919;-71
2023/12/18 12:40:43;;;;;;;;;;;6.40;99.90;;;;;;5103310;28;19912;-72
2023/12/18 12:43:10;;;;;;;;;;;6.40;99.90;;;;;;5095827;28;19962;-71
2023/12/18 12:45:36;;;;;;;;;;;6.40;99.90;;;;;;5096597;27;19965;-71
2023/12/18 12:48:05;;;;;;;;;;;6.30;99.90;;;;;;5099823;28;20484;-71
2023/12/18 12:50:30;;;;;;;;;;;6.30;99.90;;;;;;5090657;28;20022;-71
2023/12/18 12:52:57;;;;;;;;;;;6.40;99.90;;;;;;5108838;27;19997;-71
2023/12/18 12:55:22;;;;;;;;;;;6.40;99.90;;;;;;5094930;27;19912;-71
2023/12/18 12:57:48;;;;;;;;;;;6.40;99.90;;;;;;5127203;27;19912;-71
2023/12/18 13:00:18;;;;;;;;;;;6.40;99.90;;;;;;5108220;27;19923;-71
2023/12/18 13:02:43;;;;;;;;;;;6.40;99.90;;;;;;5127375;27;19980;-71
2023/12/18 13:05:09;;;;;;;;;;;6.40;99.90;;;;;;5104642;27;20002;-71
2023/12/18 13:07:34;;;;;;;;;;;6.40;99.90;;;;;;5109024;27;19959;-71
2023/12/18 13:10:03;;;;;;;;;;;6.40;99.90;;;;;;5113002;27;19964;-71
2023/12/18 13:12:29;;;;;;;;;;;6.40;99.90;;;;;;5116583;27;20427;-71
2023/12/18 13:14:55;;;;;;;;;;;6.40;99.90;;;;;;5111898;27;19958;-71
2023/12/18 13:17:20;;;;;;;;;;;6.40;99.90;;;;;;5113030;27;19911;-71
2023/12/18 13:19:46;;;;;;;;;;;6.40;99.90;;;;;;5114219;27;19911;-71
2023/12/18 13:22:11;;;;;;;;;;;6.40;99.90;;;;;;5106036;27;20012;-71
2023/12/18 13:24:37;;;;;;;;;;;6.40;99.90;;;;;;5099122;27;19912;-71
2023/12/18 13:27:03;;;;;;;;;;;6.40;99.90;;;;;;5098334;27;19920;-71
2023/12/18 13:29:32;;;;;;;;;;;6.40;99.90;;;;;;5109623;27;19919;-71
2023/12/18 13:32:04;;;;;;;;;;;6.40;99.90;;;;;;5109612;27;19911;-71
2023/12/18 13:34:31;;;;;;;;;;;6.40;99.90;;;;;;5104328;27;19915;-71
2023/12/18 13:36:57;;;;;;;;;;;6.40;99.90;;;;;;5105108;28;20023;-71
2023/12/18 13:39:22;;;;;;;;;;;6.40;99.90;;;;;;5110992;27;20677;-71
2023/12/18 13:41:48;;;;;;;;;;;6.40;99.90;;;;;;5101191;27;19916;-71
2023/12/18 13:44:14;;;;;;;;;;;6.40;99.90;;;;;;5103797;28;19927;-71
2023/12/18 13:46:39;;;;;;;;;;;6.40;99.90;;;;;;5105448;28;19919;-71
2023/12/18 13:49:05;;;;;;;;;;;6.40;99.90;;;;;;5123121;27;19911;-71
2023/12/18 13:51:32;;;;;;;;;;;6.40;99.90;;;;;;5113556;27;20365;-71
2023/12/18 13:53:58;;;;;;;;;;;6.40;99.90;;;;;;5104260;28;19915;-71
2023/12/18 13:56:26;;;;;;;;;;;6.40;99.90;;;;;;5105462;27;19985;-71
2023/12/18 13:58:52;;;;;;;;;;;6.40;99.90;;;;;;5108477;27;19937;-71
2023/12/18 14:01:17;;;;;;;;;;;6.40;99.90;;;;;;5107707;27;19916;-71
2023/12/18 14:03:43;;;;;;;;;;;6.50;99.90;;;;;;5103730;27;19916;-71
2023/12/18 14:06:08;;;;;;;;;;;6.40;99.90;;;;;;5107471;27;19923;-72
2023/12/18 14:08:34;;;;;;;;;;;6.40;99.90;;;;;;5113380;27;20437;-72
2023/12/18 14:10:59;;;;;;;;;;;6.50;99.90;;;;;;5105273;28;19973;-71
2023/12/18 14:13:25;;;;;;;;;;;6.40;99.90;;;;;;5106957;27;20386;-71
2023/12/18 14:15:50;;;;;;;;;;;6.50;99.90;;;;;;5103069;27;19912;-71
2023/12/18 14:18:16;;;;;;;;;;;6.50;99.90;;;;;;5108144;27;19965;-71
2023/12/18 14:20:42;;;;;;;;;;;6.50;99.90;;;;;;5104661;28;19912;-71
2023/12/18 14:23:07;;;;;;;;;;;6.50;99.90;;;;;;5104969;27;19931;-71